KBOS Airport Information

Runway Information
Runway 04L Length 7861 ft width 150 ft
Elevation 14 ft Threshold 0 ft Heading 20
Runway 22R Length 7861 ft Width 150 ft
Elevation 15 ft Threshold 815 ft Heading 200
Runway 04R Length 10005 ft width 150 ft
Elevation 18 ft Threshold 1154 ft Heading 20
Runway 22L Length 10005 ft Width 150 ft
Elevation 16 ft Threshold 1199 ft Heading 200
Runway 09 Length 7000 ft width 150 ft
Elevation 17 ft Threshold 0 ft Heading 77
Runway 27 Length 7000 ft Width 150 ft
Elevation 15 ft Threshold 0 ft Heading 257
Runway 14 Length 5000 ft width 100 ft
Elevation 17 ft Threshold 0 ft Heading 125
Runway 32 Length 5000 ft Width 100 ft
Elevation 20 ft Threshold 0 ft Heading 305
Runway 15L Length 2557 ft width 100 ft
Elevation 15 ft Threshold 0 ft Heading 135
Runway 33R Length 2557 ft Width 100 ft
Elevation 14 ft Threshold 0 ft Heading 315
Runway 15R Length 10083 ft width 150 ft
Elevation 17 ft Threshold 880 ft Heading 135
Runway 33L Length 10083 ft Width 150 ft
Elevation 15 ft Threshold 0 ft Heading 315
Airport Frequencies
Type APP Name BOSTON APP Frequency 118.25 MHZ
Type ATIS Name ATIS Frequency 135 MHZ
Type CLD Name CLNC DEL Frequency 121.65 MHZ
Type DEP Name BOSTON DEP Frequency 133 MHZ
Type GND Name GND Frequency 121.9 MHZ
Type GTE Name GATE Frequency 134.05 MHZ
Type RDO Name BRIDGEPORT Frequency 122.4 MHZ
Type TWR Name BOSTON TWR Frequency 124.725 MHZ
Type UNIC Name UNICOM Frequency 122.95 MHZ
Airport Navaids
Type NDB Name Miltt Frequency 375 KHZ
Type VORTAC Name Boston Frequency 112700 KHZ
Type NDB Name Hullz Frequency 346 KHZ
Type NDB Name Lyndy Frequency 382 KHZ
Airport Weather Information & NOTAM
ADDS - METARS form results

(1449 UTC 20 April 2018)
Data provider http://aviationweather.gov/adds/metars/
 
METAR text: KBOS 201354Z 31014G21KT 10SM SCT040 BKN065 06/M03 A2999 RMK AO2 SLP154 T00611033
Conditions at: KBOS (BOSTON , MA, US) observed 1354 UTC 20 April 2018
Temperature: 6.1°C (43°F)
Dewpoint: -3.3°C (26°F) [RH = 51%]
Pressure (altimeter): 29.99 inches Hg (1015.7 mb)
[Sea-level pressure: 1015.4 mb]
Winds: from the NW (310 degrees) at 16 MPH (14 knots; 7.3 m/s)
gusting to 24 MPH (21 knots; 10.9 m/s)
Visibility: 10 or more miles (16+ km)
Ceiling: 6500 feet AGL
Clouds: scattered clouds at 4000 feet AGL
broken clouds at 6500 feet AGL
Weather: no significant weather observed at this time

Forecast for: KBOS (BOSTON , MA, US)
Text: KBOS 201122Z 2012/2118 29012KT P6SM SCT060
Forecast period: 1200 to 1400 UTC 20 April 2018
Forecast type: FROM: standard forecast or significant change
Winds: from the WNW (290 degrees) at 14 MPH (12 knots; 6.2 m/s)
Visibility: 6 or more miles (10+ km)
Clouds: scattered clouds at 6000 feet AGL
Weather: no significant weather forecast for this period
Forecast for: KBOS (BOSTON , MA, US)
Text: KBOS 201122Z 2012/2118 29012KT P6SM SCT060
Forecast period: 1200 to 1400 UTC 20 April 2018
Forecast type: FROM: standard forecast or significant change
Winds: from the WNW (290 degrees) at 14 MPH (12 knots; 6.2 m/s)
Visibility: 6 or more miles (10+ km)
Clouds: scattered clouds at 6000 feet AGL
Weather: no significant weather forecast for this period
Forecast for: KBOS (BOSTON , MA, US)
Text: KBOS 201122Z 2012/2118 29012KT P6SM SCT060
Forecast period: 1400 to 1900 UTC 20 April 2018
Forecast type: FROM: standard forecast or significant change
Winds: from the WNW (300 degrees) at 14 MPH (12 knots; 6.2 m/s)
gusting to 29 MPH (25 knots; 13.0 m/s)
Visibility: 6 or more miles (10+ km)
Clouds: few clouds at 6000 feet AGL
Weather: no significant weather forecast for this period
Forecast for: KBOS (BOSTON , MA, US)
Text: KBOS 201122Z 2012/2118 29012KT P6SM SCT060
Forecast period: 1400 to 1900 UTC 20 April 2018
Forecast type: FROM: standard forecast or significant change
Winds: from the WNW (300 degrees) at 14 MPH (12 knots; 6.2 m/s)
gusting to 29 MPH (25 knots; 13.0 m/s)
Visibility: 6 or more miles (10+ km)
Clouds: few clouds at 6000 feet AGL
Weather: no significant weather forecast for this period
Forecast for: KBOS (BOSTON , MA, US)
Text: KBOS 201122Z 2012/2118 29012KT P6SM SCT060
Forecast period: 1900 UTC 20 April 2018 to 0600 UTC 21 April 2018
Forecast type: FROM: standard forecast or significant change
Winds: from the NW (310 degrees) at 13 MPH (11 knots; 5.7 m/s)
gusting to 24 MPH (21 knots; 10.9 m/s)
Visibility: 6 or more miles (10+ km)
Clouds: scattered clouds at 5000 feet AGL
Weather: no significant weather forecast for this period
Forecast for: KBOS (BOSTON , MA, US)
Text: KBOS 201122Z 2012/2118 29012KT P6SM SCT060
Forecast period: 1900 UTC 20 April 2018 to 0600 UTC 21 April 2018
Forecast type: FROM: standard forecast or significant change
Winds: from the NW (310 degrees) at 13 MPH (11 knots; 5.7 m/s)
gusting to 24 MPH (21 knots; 10.9 m/s)
Visibility: 6 or more miles (10+ km)
Clouds: scattered clouds at 5000 feet AGL
Weather: no significant weather forecast for this period
Forecast for: KBOS (BOSTON , MA, US)
Text: KBOS 201122Z 2012/2118 29012KT P6SM SCT060
Forecast period: 0600 to 1500 UTC 21 April 2018
Forecast type: FROM: standard forecast or significant change
Winds: from the NW (310 degrees) at 10 MPH (9 knots; 4.7 m/s)
Visibility: 6 or more miles (10+ km)
Clouds: few clouds at 7000 feet AGL
Weather: no significant weather forecast for this period
Forecast for: KBOS (BOSTON , MA, US)
Text: KBOS 201122Z 2012/2118 29012KT P6SM SCT060
Forecast period: 0600 to 1500 UTC 21 April 2018
Forecast type: FROM: standard forecast or significant change
Winds: from the NW (310 degrees) at 10 MPH (9 knots; 4.7 m/s)
Visibility: 6 or more miles (10+ km)
Clouds: few clouds at 7000 feet AGL
Weather: no significant weather forecast for this period
Forecast for: KBOS (BOSTON , MA, US)
Text: KBOS 201122Z 2012/2118 29012KT P6SM SCT060
Forecast period: 1500 to 1800 UTC 21 April 2018
Forecast type: FROM: standard forecast or significant change
Winds: from the NW (320 degrees) at 10 MPH (9 knots; 4.7 m/s)
Visibility: 6 or more miles (10+ km)
Clouds: few clouds at 25000 feet AGL
Weather: no significant weather forecast for this period
Forecast for: KBOS (BOSTON , MA, US)
Text: KBOS 201122Z 2012/2118 29012KT P6SM SCT060
Forecast period: 1500 to 1800 UTC 21 April 2018
Forecast type: FROM: standard forecast or significant change
Winds: from the NW (320 degrees) at 10 MPH (9 knots; 4.7 m/s)
Visibility: 6 or more miles (10+ km)
Clouds: few clouds at 25000 feet AGL
Weather: no significant weather forecast for this period